sensor_id;sensor_type;location;lat;lon;timestamp;temperature;humidity
47626;DHT22;33342;45.574;9.252;2023-02-15T00:02:00;10.80;99.90
47626;DHT22;33342;45.574;9.252;2023-02-15T00:04:27;10.80;99.90
47626;DHT22;33342;45.574;9.252;2023-02-15T00:07:26;10.80;99.90
47626;DHT22;33342;45.574;9.252;2023-02-15T00:09:53;10.80;99.90
47626;DHT22;33342;45.574;9.252;2023-02-15T00:12:20;10.80;99.90
47626;DHT22;33342;45.574;9.252;2023-02-15T00:14:47;10.80;99.90
47626;DHT22;33342;45.574;9.252;2023-02-15T00:17:14;10.80;99.90
47626;DHT22;33342;45.574;9.252;2023-02-15T00:19:41;10.70;99.90
47626;DHT22;33342;45.574;9.252;2023-02-15T00:22:08;10.70;99.90
47626;DHT22;33342;45.574;9.252;2023-02-15T00:24:35;10.70;99.90
47626;DHT22;33342;45.574;9.252;2023-02-15T00:27:02;10.70;99.90
47626;DHT22;33342;45.574;9.252;2023-02-15T00:29:29;10.60;99.90
47626;DHT22;33342;45.574;9.252;2023-02-15T00:31:56;10.60;99.90
47626;DHT22;33342;45.574;9.252;2023-02-15T00:34:26;10.60;99.90
47626;DHT22;33342;45.574;9.252;2023-02-15T00:36:56;10.60;99.90
47626;DHT22;33342;45.574;9.252;2023-02-15T00:39:23;10.50;99.90
47626;DHT22;33342;45.574;9.252;2023-02-15T00:41:51;10.50;99.90
47626;DHT22;33342;45.574;9.252;2023-02-15T00:44:18;10.50;99.90
47626;DHT22;33342;45.574;9.252;2023-02-15T00:46:45;10.50;99.90
47626;DHT22;33342;45.574;9.252;2023-02-15T00:49:12;10.50;99.90
47626;DHT22;33342;45.574;9.252;2023-02-15T00:51:38;10.50;99.90
47626;DHT22;33342;45.574;9.252;2023-02-15T00:54:06;10.40;99.90
47626;DHT22;33342;45.574;9.252;2023-02-15T00:56:33;10.40;99.90
47626;DHT22;33342;45.574;9.252;2023-02-15T00:59:00;10.40;99.90
47626;DHT22;33342;45.574;9.252;2023-02-15T01:01:27;10.40;99.90
47626;DHT22;33342;45.574;9.252;2023-02-15T01:03:54;10.40;99.90
47626;DHT22;33342;45.574;9.252;2023-02-15T01:06:21;10.40;99.90
47626;DHT22;33342;45.574;9.252;2023-02-15T01:08:48;10.40;99.90
47626;DHT22;33342;45.574;9.252;2023-02-15T01:11:18;10.40;99.90
47626;DHT22;33342;45.574;9.252;2023-02-15T01:13:55;10.40;99.90
47626;DHT22;33342;45.574;9.252;2023-02-15T01:16:24;10.40;99.90
47626;DHT22;33342;45.574;9.252;2023-02-15T01:18:52;10.40;99.90
47626;DHT22;33342;45.574;9.252;2023-02-15T01:21:21;10.40;99.90
47626;DHT22;33342;45.574;9.252;2023-02-15T01:23:49;10.40;99.90
47626;DHT22;33342;45.574;9.252;2023-02-15T01:26:16;10.30;99.90
47626;DHT22;33342;45.574;9.252;2023-02-15T01:28:44;10.40;99.90
47626;DHT22;33342;45.574;9.252;2023-02-15T01:31:14;10.30;99.90
47626;DHT22;33342;45.574;9.252;2023-02-15T01:33:45;10.30;99.90
47626;DHT22;33342;45.574;9.252;2023-02-15T01:36:13;10.30;99.90
47626;DHT22;33342;45.574;9.252;2023-02-15T01:38:40;10.30;99.90
47626;DHT22;33342;45.574;9.252;2023-02-15T01:41:08;10.30;99.90
47626;DHT22;33342;45.574;9.252;2023-02-15T01:43:53;10.30;99.90
47626;DHT22;33342;45.574;9.252;2023-02-15T01:46:24;10.30;99.90
47626;DHT22;33342;45.574;9.252;2023-02-15T01:48:56;10.20;99.90
47626;DHT22;33342;45.574;9.252;2023-02-15T01:51:27;10.30;99.90
47626;DHT22;33342;45.574;9.252;2023-02-15T01:54:11;10.20;99.90
47626;DHT22;33342;45.574;9.252;2023-02-15T01:56:42;10.20;99.90
47626;DHT22;33342;45.574;9.252;2023-02-15T01:59:13;10.20;99.90
47626;DHT22;33342;45.574;9.252;2023-02-15T02:01:42;10.20;99.90
47626;DHT22;33342;45.574;9.252;2023-02-15T02:04:48;10.20;99.90
47626;DHT22;33342;45.574;9.252;2023-02-15T02:07:20;10.20;99.90
47626;DHT22;33342;45.574;9.252;2023-02-15T02:09:48;10.20;99.90
47626;DHT22;33342;45.574;9.252;2023-02-15T02:12:16;10.20;99.90
47626;DHT22;33342;45.574;9.252;2023-02-15T02:14:45;10.20;99.90
47626;DHT22;33342;45.574;9.252;2023-02-15T02:33:19;10.20;99.90
47626;DHT22;33342;45.574;9.252;2023-02-15T02:36:08;10.20;99.90
47626;DHT22;33342;45.574;9.252;2023-02-15T02:41:55;10.20;99.90
47626;DHT22;33342;45.574;9.252;2023-02-15T02:49:35;10.10;99.90
47626;DHT22;33342;45.574;9.252;2023-02-15T02:52:06;10.00;99.90
47626;DHT22;33342;45.574;9.252;2023-02-15T02:54:35;10.00;99.90
47626;DHT22;33342;45.574;9.252;2023-02-15T02:57:05;10.00;99.90
47626;DHT22;33342;45.574;9.252;2023-02-15T02:59:41;10.00;99.90
47626;DHT22;33342;45.574;9.252;2023-02-15T03:02:14;9.90;99.90
47626;DHT22;33342;45.574;9.252;2023-02-15T03:04:47;10.00;99.90
47626;DHT22;33342;45.574;9.252;2023-02-15T03:07:19;9.90;99.90
47626;DHT22;33342;45.574;9.252;2023-02-15T03:09:51;10.00;99.90
47626;DHT22;33342;45.574;9.252;2023-02-15T03:12:23;9.90;99.90
47626;DHT22;33342;45.574;9.252;2023-02-15T03:17:32;9.90;99.90
47626;DHT22;33342;45.574;9.252;2023-02-15T03:20:07;10.00;99.90
47626;DHT22;33342;45.574;9.252;2023-02-15T03:22:57;10.00;99.90
47626;DHT22;33342;45.574;9.252;2023-02-15T03:25:35;10.00;99.90
47626;DHT22;33342;45.574;9.252;2023-02-15T03:28:11;10.00;99.90
47626;DHT22;33342;45.574;9.252;2023-02-15T03:30:42;10.00;99.90
47626;DHT22;33342;45.574;9.252;2023-02-15T03:33:11;10.00;99.90
47626;DHT22;33342;45.574;9.252;2023-02-15T03:35:48;10.00;99.90
47626;DHT22;33342;45.574;9.252;2023-02-15T03:38:20;10.00;99.90
47626;DHT22;33342;45.574;9.252;2023-02-15T03:40:50;10.00;99.90
47626;DHT22;33342;45.574;9.252;2023-02-15T03:46:12;10.00;99.90
47626;DHT22;33342;45.574;9.252;2023-02-15T03:48:43;10.00;99.90
47626;DHT22;33342;45.574;9.252;2023-02-15T03:51:20;10.00;99.90
47626;DHT22;33342;45.574;9.252;2023-02-15T03:54:24;10.00;99.90
47626;DHT22;33342;45.574;9.252;2023-02-15T03:57:13;10.00;99.90
47626;DHT22;33342;45.574;9.252;2023-02-15T03:59:59;10.00;99.90
47626;DHT22;33342;45.574;9.252;2023-02-15T04:05:31;9.90;99.90
47626;DHT22;33342;45.574;9.252;2023-02-15T04:07:58;9.90;99.90
47626;DHT22;33342;45.574;9.252;2023-02-15T04:10:25;9.90;99.90
47626;DHT22;33342;45.574;9.252;2023-02-15T04:13:12;9.80;99.90
47626;DHT22;33342;45.574;9.252;2023-02-15T04:15:39;9.80;99.90
47626;DHT22;33342;45.574;9.252;2023-02-15T04:18:25;9.70;99.90
47626;DHT22;33342;45.574;9.252;2023-02-15T04:21:11;9.60;99.90
47626;DHT22;33342;45.574;9.252;2023-02-15T04:23:56;9.60;99.90
47626;DHT22;33342;45.574;9.252;2023-02-15T04:26:42;9.50;99.90
47626;DHT22;33342;45.574;9.252;2023-02-15T04:29:08;9.50;99.90
47626;DHT22;33342;45.574;9.252;2023-02-15T04:31:36;9.50;99.90
47626;DHT22;33342;45.574;9.252;2023-02-15T04:34:03;9.50;99.90
47626;DHT22;33342;45.574;9.252;2023-02-15T04:36:30;9.50;99.90
47626;DHT22;33342;45.574;9.252;2023-02-15T04:38:57;9.50;99.90
47626;DHT22;33342;45.574;9.252;2023-02-15T04:41:24;9.50;99.90
47626;DHT22;33342;45.574;9.252;2023-02-15T04:43:51;9.40;99.90
47626;DHT22;33342;45.574;9.252;2023-02-15T04:46:18;9.50;99.90
47626;DHT22;33342;45.574;9.252;2023-02-15T04:48:45;9.50;99.90
47626;DHT22;33342;45.574;9.252;2023-02-15T04:51:12;9.50;99.90
47626;DHT22;33342;45.574;9.252;2023-02-15T04:53:39;9.50;99.90
47626;DHT22;33342;45.574;9.252;2023-02-15T04:56:06;9.40;99.90
47626;DHT22;33342;45.574;9.252;2023-02-15T04:58:33;9.40;99.90
47626;DHT22;33342;45.574;9.252;2023-02-15T05:01:00;9.40;99.90
47626;DHT22;33342;45.574;9.252;2023-02-15T05:03:27;9.40;99.90
47626;DHT22;33342;45.574;9.252;2023-02-15T05:05:54;9.40;99.90
47626;DHT22;33342;45.574;9.252;2023-02-15T05:08:21;9.40;99.90
47626;DHT22;33342;45.574;9.252;2023-02-15T05:10:48;9.30;99.90
47626;DHT22;33342;45.574;9.252;2023-02-15T05:13:15;9.30;99.90
47626;DHT22;33342;45.574;9.252;2023-02-15T05:15:50;9.30;99.90
47626;DHT22;33342;45.574;9.252;2023-02-15T05:18:18;9.20;99.90
47626;DHT22;33342;45.574;9.252;2023-02-15T05:20:46;9.20;99.90
47626;DHT22;33342;45.574;9.252;2023-02-15T05:23:13;9.20;99.90
47626;DHT22;33342;45.574;9.252;2023-02-15T05:25:40;9.20;99.90
47626;DHT22;33342;45.574;9.252;2023-02-15T05:28:27;9.10;99.90
47626;DHT22;33342;45.574;9.252;2023-02-15T05:31:07;9.10;99.90
47626;DHT22;33342;45.574;9.252;2023-02-15T05:33:36;9.00;99.90
47626;DHT22;33342;45.574;9.252;2023-02-15T05:36:03;8.90;99.90
47626;DHT22;33342;45.574;9.252;2023-02-15T05:38:31;8.90;99.90
47626;DHT22;33342;45.574;9.252;2023-02-15T05:40:59;8.90;99.90
47626;DHT22;33342;45.574;9.252;2023-02-15T05:43:26;8.80;99.90
47626;DHT22;33342;45.574;9.252;2023-02-15T05:45:54;8.80;99.90
47626;DHT22;33342;45.574;9.252;2023-02-15T05:48:25;8.80;99.90
47626;DHT22;33342;45.574;9.252;2023-02-15T05:51:12;8.80;99.90
47626;DHT22;33342;45.574;9.252;2023-02-15T05:53:40;8.80;99.90
47626;DHT22;33342;45.574;9.252;2023-02-15T05:56:09;8.70;99.90
47626;DHT22;33342;45.574;9.252;2023-02-15T05:58:39;8.80;99.90
47626;DHT22;33342;45.574;9.252;2023-02-15T06:01:14;8.80;99.90
47626;DHT22;33342;45.574;9.252;2023-02-15T06:03:41;8.80;99.90
47626;DHT22;33342;45.574;9.252;2023-02-15T06:06:09;8.80;99.90
47626;DHT22;33342;45.574;9.252;2023-02-15T06:08:37;8.90;99.90
47626;DHT22;33342;45.574;9.252;2023-02-15T06:11:05;8.90;99.90
47626;DHT22;33342;45.574;9.252;2023-02-15T06:13:33;8.90;99.90
47626;DHT22;33342;45.574;9.252;2023-02-15T06:16:04;8.90;99.90
47626;DHT22;33342;45.574;9.252;2023-02-15T06:18:31;8.90;99.90
47626;DHT22;33342;45.574;9.252;2023-02-15T06:20:58;8.90;99.90
47626;DHT22;33342;45.574;9.252;2023-02-15T06:23:25;8.90;99.90
47626;DHT22;33342;45.574;9.252;2023-02-15T06:25:52;8.80;99.90
47626;DHT22;33342;45.574;9.252;2023-02-15T06:28:19;8.80;99.90
47626;DHT22;33342;45.574;9.252;2023-02-15T06:30:46;8.80;99.90
47626;DHT22;33342;45.574;9.252;2023-02-15T06:33:14;8.90;99.90
47626;DHT22;33342;45.574;9.252;2023-02-15T06:35:41;8.80;99.90
47626;DHT22;33342;45.574;9.252;2023-02-15T06:38:08;8.80;99.90
47626;DHT22;33342;45.574;9.252;2023-02-15T06:40:35;8.80;99.90
47626;DHT22;33342;45.574;9.252;2023-02-15T06:43:02;8.90;99.90
47626;DHT22;33342;45.574;9.252;2023-02-15T06:45:29;8.90;99.90
47626;DHT22;33342;45.574;9.252;2023-02-15T06:47:56;8.90;99.90
47626;DHT22;33342;45.574;9.252;2023-02-15T06:50:23;8.90;99.90
47626;DHT22;33342;45.574;9.252;2023-02-15T06:52:55;8.90;99.90
47626;DHT22;33342;45.574;9.252;2023-02-15T06:55:22;8.90;99.90
47626;DHT22;33342;45.574;9.252;2023-02-15T06:57:49;8.90;99.90
47626;DHT22;33342;45.574;9.252;2023-02-15T07:00:17;8.90;99.90
47626;DHT22;33342;45.574;9.252;2023-02-15T07:02:45;8.90;99.90
47626;DHT22;33342;45.574;9.252;2023-02-15T07:05:12;8.80;99.90
47626;DHT22;33342;45.574;9.252;2023-02-15T07:07:39;8.80;99.90
47626;DHT22;33342;45.574;9.252;2023-02-15T07:10:06;8.80;99.90
47626;DHT22;33342;45.574;9.252;2023-02-15T07:12:33;8.80;99.90
47626;DHT22;33342;45.574;9.252;2023-02-15T07:15:10;8.80;99.90
47626;DHT22;33342;45.574;9.252;2023-02-15T07:17:37;8.90;99.90
47626;DHT22;33342;45.574;9.252;2023-02-15T07:20:11;8.90;99.90
47626;DHT22;33342;45.574;9.252;2023-02-15T07:22:38;8.90;99.90
47626;DHT22;33342;45.574;9.252;2023-02-15T07:25:08;9.00;99.90
47626;DHT22;33342;45.574;9.252;2023-02-15T07:27:35;9.00;99.90
47626;DHT22;33342;45.574;9.252;2023-02-15T07:30:04;9.00;99.90
47626;DHT22;33342;45.574;9.252;2023-02-15T07:32:32;9.00;99.90
47626;DHT22;33342;45.574;9.252;2023-02-15T07:35:00;9.00;99.90
47626;DHT22;33342;45.574;9.252;2023-02-15T07:37:27;9.10;99.90
47626;DHT22;33342;45.574;9.252;2023-02-15T07:39:54;9.10;99.90
47626;DHT22;33342;45.574;9.252;2023-02-15T07:42:21;9.10;99.90
47626;DHT22;33342;45.574;9.252;2023-02-15T07:44:49;9.10;99.90
47626;DHT22;33342;45.574;9.252;2023-02-15T07:47:16;9.20;99.90
47626;DHT22;33342;45.574;9.252;2023-02-15T07:49:44;9.20;99.90
47626;DHT22;33342;45.574;9.252;2023-02-15T07:52:11;9.20;99.90
47626;DHT22;33342;45.574;9.252;2023-02-15T07:54:38;9.30;99.90
47626;DHT22;33342;45.574;9.252;2023-02-15T07:57:05;9.30;99.90
47626;DHT22;33342;45.574;9.252;2023-02-15T07:59:32;9.40;99.90
47626;DHT22;33342;45.574;9.252;2023-02-15T08:01:59;9.40;99.90
47626;DHT22;33342;45.574;9.252;2023-02-15T08:04:26;9.40;99.90
47626;DHT22;33342;45.574;9.252;2023-02-15T08:06:53;9.50;99.90
47626;DHT22;33342;45.574;9.252;2023-02-15T08:09:21;9.60;99.90
47626;DHT22;33342;45.574;9.252;2023-02-15T08:11:48;9.60;99.90
47626;DHT22;33342;45.574;9.252;2023-02-15T08:14:18;9.70;99.90
47626;DHT22;33342;45.574;9.252;2023-02-15T08:16:53;9.70;99.90
47626;DHT22;33342;45.574;9.252;2023-02-15T08:19:23;9.70;99.90
47626;DHT22;33342;45.574;9.252;2023-02-15T08:21:53;9.80;99.90
47626;DHT22;33342;45.574;9.252;2023-02-15T08:24:23;9.90;99.90
47626;DHT22;33342;45.574;9.252;2023-02-15T08:26:51;9.90;99.90
47626;DHT22;33342;45.574;9.252;2023-02-15T08:29:23;9.90;99.90
47626;DHT22;33342;45.574;9.252;2023-02-15T08:31:54;10.00;99.90
47626;DHT22;33342;45.574;9.252;2023-02-15T08:34:21;10.00;99.90
47626;DHT22;33342;45.574;9.252;2023-02-15T08:36:48;10.00;99.90
47626;DHT22;33342;45.574;9.252;2023-02-15T08:39:15;10.10;99.90
47626;DHT22;33342;45.574;9.252;2023-02-15T08:41:44;10.10;99.90
47626;DHT22;33342;45.574;9.252;2023-02-15T08:44:11;10.20;99.90
47626;DHT22;33342;45.574;9.252;2023-02-15T08:46:41;10.20;99.90
47626;DHT22;33342;45.574;9.252;2023-02-15T08:49:09;10.20;99.90
47626;DHT22;33342;45.574;9.252;2023-02-15T08:51:38;10.30;99.90
47626;DHT22;33342;45.574;9.252;2023-02-15T08:54:07;10.30;99.90
47626;DHT22;33342;45.574;9.252;2023-02-15T08:56:37;10.40;99.90
47626;DHT22;33342;45.574;9.252;2023-02-15T08:59:10;10.40;99.90
47626;DHT22;33342;45.574;9.252;2023-02-15T09:01:38;10.40;99.90
47626;DHT22;33342;45.574;9.252;2023-02-15T09:04:07;10.50;99.90
47626;DHT22;33342;45.574;9.252;2023-02-15T09:06:36;10.50;99.90
47626;DHT22;33342;45.574;9.252;2023-02-15T09:09:04;10.50;99.90
47626;DHT22;33342;45.574;9.252;2023-02-15T09:11:35;10.60;99.90
47626;DHT22;33342;45.574;9.252;2023-02-15T09:14:07;10.60;99.90
47626;DHT22;33342;45.574;9.252;2023-02-15T09:16:37;10.60;99.90
47626;DHT22;33342;45.574;9.252;2023-02-15T09:19:05;10.70;99.90
47626;DHT22;33342;45.574;9.252;2023-02-15T09:21:35;10.70;99.90
47626;DHT22;33342;45.574;9.252;2023-02-15T09:24:05;10.70;99.90
47626;DHT22;33342;45.574;9.252;2023-02-15T09:26:35;10.70;99.90
47626;DHT22;33342;45.574;9.252;2023-02-15T09:29:03;10.80;99.90
47626;DHT22;33342;45.574;9.252;2023-02-15T09:31:33;10.80;99.90
47626;DHT22;33342;45.574;9.252;2023-02-15T09:34:01;10.80;99.90
47626;DHT22;33342;45.574;9.252;2023-02-15T09:36:34;10.90;99.90
47626;DHT22;33342;45.574;9.252;2023-02-15T09:39:09;10.90;99.90
47626;DHT22;33342;45.574;9.252;2023-02-15T09:44:38;11.00;99.90
47626;DHT22;33342;45.574;9.252;2023-02-15T10:02:09;11.20;99.90
47626;DHT22;33342;45.574;9.252;2023-02-15T10:04:46;11.30;99.90
47626;DHT22;33342;45.574;9.252;2023-02-15T10:07:33;11.30;99.90
47626;DHT22;33342;45.574;9.252;2023-02-15T10:15:39;11.40;99.90
47626;DHT22;33342;45.574;9.252;2023-02-15T10:26:56;11.60;99.90
47626;DHT22;33342;45.574;9.252;2023-02-15T10:29:37;11.70;99.90
47626;DHT22;33342;45.574;9.252;2023-02-15T10:40:33;11.90;99.90
47626;DHT22;33342;45.574;9.252;2023-02-15T10:43:26;11.90;99.90
47626;DHT22;33342;45.574;9.252;2023-02-15T10:49:31;12.10;99.90
47626;DHT22;33342;45.574;9.252;2023-02-15T11:01:01;12.20;99.90
47626;DHT22;33342;45.574;9.252;2023-02-15T11:04:05;12.30;99.90
47626;DHT22;33342;45.574;9.252;2023-02-15T11:06:36;12.30;99.90
47626;DHT22;33342;45.574;9.252;2023-02-15T11:09:11;12.40;99.90
47626;DHT22;33342;45.574;9.252;2023-02-15T11:11:40;12.40;99.90
47626;DHT22;33342;45.574;9.252;2023-02-15T11:17:16;12.50;99.90
47626;DHT22;33342;45.574;9.252;2023-02-15T11:22:24;12.70;99.90
47626;DHT22;33342;45.574;9.252;2023-02-15T11:24:51;12.70;99.90
47626;DHT22;33342;45.574;9.252;2023-02-15T11:27:30;12.80;99.90
47626;DHT22;33342;45.574;9.252;2023-02-15T11:30:10;12.80;99.90
47626;DHT22;33342;45.574;9.252;2023-02-15T11:32:47;12.90;99.90
47626;DHT22;33342;45.574;9.252;2023-02-15T11:35:24;12.90;99.90
47626;DHT22;33342;45.574;9.252;2023-02-15T11:40:48;12.90;99.90
47626;DHT22;33342;45.574;9.252;2023-02-15T11:43:39;13.00;99.90
47626;DHT22;33342;45.574;9.252;2023-02-15T11:46:11;13.00;99.90
47626;DHT22;33342;45.574;9.252;2023-02-15T11:48:39;13.10;99.90
47626;DHT22;33342;45.574;9.252;2023-02-15T11:51:12;13.10;99.90
47626;DHT22;33342;45.574;9.252;2023-02-15T11:53:40;13.20;99.90
47626;DHT22;33342;45.574;9.252;2023-02-15T11:56:16;13.20;99.90
47626;DHT22;33342;45.574;9.252;2023-02-15T11:59:03;13.20;99.90
47626;DHT22;33342;45.574;9.252;2023-02-15T12:01:37;13.30;99.90
47626;DHT22;33342;45.574;9.252;2023-02-15T12:04:09;13.40;99.90
47626;DHT22;33342;45.574;9.252;2023-02-15T12:06:43;13.40;99.90
47626;DHT22;33342;45.574;9.252;2023-02-15T12:09:32;13.40;99.90
47626;DHT22;33342;45.574;9.252;2023-02-15T12:12:34;13.40;99.90
47626;DHT22;33342;45.574;9.252;2023-02-15T12:15:04;13.40;99.90
47626;DHT22;33342;45.574;9.252;2023-02-15T12:17:51;13.50;99.90
47626;DHT22;33342;45.574;9.252;2023-02-15T12:23:00;13.60;99.90
47626;DHT22;33342;45.574;9.252;2023-02-15T12:25:36;13.60;99.90
47626;DHT22;33342;45.574;9.252;2023-02-15T12:28:18;13.70;99.90
47626;DHT22;33342;45.574;9.252;2023-02-15T12:30:47;13.80;99.90
47626;DHT22;33342;45.574;9.252;2023-02-15T12:33:23;13.80;99.90
47626;DHT22;33342;45.574;9.252;2023-02-15T12:36:18;13.90;99.90
47626;DHT22;33342;45.574;9.252;2023-02-15T12:41:33;13.90;99.90
47626;DHT22;33342;45.574;9.252;2023-02-15T12:44:18;14.00;99.90
47626;DHT22;33342;45.574;9.252;2023-02-15T12:46:56;13.90;99.90
47626;DHT22;33342;45.574;9.252;2023-02-15T12:49:25;13.90;99.90
47626;DHT22;33342;45.574;9.252;2023-02-15T12:51:54;14.00;99.90
47626;DHT22;33342;45.574;9.252;2023-02-15T12:54:29;14.00;99.90
47626;DHT22;33342;45.574;9.252;2023-02-15T12:56:57;14.00;99.90
47626;DHT22;33342;45.574;9.252;2023-02-15T12:59:25;14.10;99.90
47626;DHT22;33342;45.574;9.252;2023-02-15T13:01:52;14.20;99.90
47626;DHT22;33342;45.574;9.252;2023-02-15T13:04:27;14.20;99.90
47626;DHT22;33342;45.574;9.252;2023-02-15T13:06:58;14.30;99.90
47626;DHT22;33342;45.574;9.252;2023-02-15T13:09:38;14.40;99.90
47626;DHT22;33342;45.574;9.252;2023-02-15T13:12:23;14.40;99.90
47626;DHT22;33342;45.574;9.252;2023-02-15T13:14:51;14.40;99.90
47626;DHT22;33342;45.574;9.252;2023-02-15T13:17:25;14.50;99.90
47626;DHT22;33342;45.574;9.252;2023-02-15T13:20:00;14.60;99.90
47626;DHT22;33342;45.574;9.252;2023-02-15T13:22:38;14.70;99.90
47626;DHT22;33342;45.574;9.252;2023-02-15T13:25:17;14.70;99.90
47626;DHT22;33342;45.574;9.252;2023-02-15T13:27:51;14.80;99.90
47626;DHT22;33342;45.574;9.252;2023-02-15T13:30:28;14.80;99.90
47626;DHT22;33342;45.574;9.252;2023-02-15T13:33:03;14.90;99.90
47626;DHT22;33342;45.574;9.252;2023-02-15T13:35:42;14.90;99.90
47626;DHT22;33342;45.574;9.252;2023-02-15T13:41:01;15.10;99.90
47626;DHT22;33342;45.574;9.252;2023-02-15T14:19:52;20.20;99.90
47626;DHT22;33342;45.574;9.252;2023-02-15T14:22:44;20.50;99.90
47626;DHT22;33342;45.574;9.252;2023-02-15T14:25:23;20.70;99.90
47626;DHT22;33342;45.574;9.252;2023-02-15T14:28:16;21.00;99.90
47626;DHT22;33342;45.574;9.252;2023-02-15T14:30:49;21.10;99.90
47626;DHT22;33342;45.574;9.252;2023-02-15T14:33:33;21.20;99.90
47626;DHT22;33342;45.574;9.252;2023-02-15T14:36:04;21.50;99.90
47626;DHT22;33342;45.574;9.252;2023-02-15T14:38:56;21.90;99.90
47626;DHT22;33342;45.574;9.252;2023-02-15T14:41:42;22.20;99.90
47626;DHT22;33342;45.574;9.252;2023-02-15T14:44:27;22.70;99.90
47626;DHT22;33342;45.574;9.252;2023-02-15T14:47:25;23.10;99.90
47626;DHT22;33342;45.574;9.252;2023-02-15T14:49:54;23.30;99.90
47626;DHT22;33342;45.574;9.252;2023-02-15T14:52:21;23.40;99.90
47626;DHT22;33342;45.574;9.252;2023-02-15T14:59:50;23.70;99.90
47626;DHT22;33342;45.574;9.252;2023-02-15T15:02:25;23.70;99.90
47626;DHT22;33342;45.574;9.252;2023-02-15T15:14:59;22.00;99.90
47626;DHT22;33342;45.574;9.252;2023-02-15T15:20:01;21.10;99.90
47626;DHT22;33342;45.574;9.252;2023-02-15T15:22:31;20.80;99.90
47626;DHT22;33342;45.574;9.252;2023-02-15T15:25:03;20.50;99.90
47626;DHT22;33342;45.574;9.252;2023-02-15T15:27:52;20.30;99.90
47626;DHT22;33342;45.574;9.252;2023-02-15T15:49:31;21.20;99.90
47626;DHT22;33342;45.574;9.252;2023-02-15T15:52:12;21.20;99.90
47626;DHT22;33342;45.574;9.252;2023-02-15T15:54:40;21.00;99.90
47626;DHT22;33342;45.574;9.252;2023-02-15T15:57:27;20.90;99.90
47626;DHT22;33342;45.574;9.252;2023-02-15T15:59:56;20.80;99.90
47626;DHT22;33342;45.574;9.252;2023-02-15T16:02:26;20.90;99.90
47626;DHT22;33342;45.574;9.252;2023-02-15T16:04:54;21.00;99.90
47626;DHT22;33342;45.574;9.252;2023-02-15T16:07:25;21.00;99.90
47626;DHT22;33342;45.574;9.252;2023-02-15T16:12:37;20.60;99.90
47626;DHT22;33342;45.574;9.252;2023-02-15T16:15:15;20.20;99.90
47626;DHT22;33342;45.574;9.252;2023-02-15T16:17:45;19.80;99.90
47626;DHT22;33342;45.574;9.252;2023-02-15T16:28:24;18.50;99.90
47626;DHT22;33342;45.574;9.252;2023-02-15T16:31:12;18.30;99.90
47626;DHT22;33342;45.574;9.252;2023-02-15T16:33:40;18.10;99.90
47626;DHT22;33342;45.574;9.252;2023-02-15T16:36:25;17.90;99.90
47626;DHT22;33342;45.574;9.252;2023-02-15T16:41:29;17.50;99.90
47626;DHT22;33342;45.574;9.252;2023-02-15T16:44:06;17.40;99.90
47626;DHT22;33342;45.574;9.252;2023-02-15T16:46:40;17.20;99.90
47626;DHT22;33342;45.574;9.252;2023-02-15T16:49:19;17.10;99.90
47626;DHT22;33342;45.574;9.252;2023-02-15T16:52:00;17.00;99.90
47626;DHT22;33342;45.574;9.252;2023-02-15T16:54:28;16.90;99.90
47626;DHT22;33342;45.574;9.252;2023-02-15T16:56:57;16.80;99.90
47626;DHT22;33342;45.574;9.252;2023-02-15T16:59:46;16.70;99.90
47626;DHT22;33342;45.574;9.252;2023-02-15T17:02:19;16.70;99.90
47626;DHT22;33342;45.574;9.252;2023-02-15T17:05:15;16.60;99.90
47626;DHT22;33342;45.574;9.252;2023-02-15T17:10:34;16.50;99.90
47626;DHT22;33342;45.574;9.252;2023-02-15T17:13:13;16.40;99.90
47626;DHT22;33342;45.574;9.252;2023-02-15T17:18:44;16.30;99.90
47626;DHT22;33342;45.574;9.252;2023-02-15T17:21:25;16.20;99.90
47626;DHT22;33342;45.574;9.252;2023-02-15T17:23:58;16.10;99.90
47626;DHT22;33342;45.574;9.252;2023-02-15T17:26:30;16.10;99.90
47626;DHT22;33342;45.574;9.252;2023-02-15T17:29:44;16.00;99.90
47626;DHT22;33342;45.574;9.252;2023-02-15T17:32:04;15.90;99.90
47626;DHT22;33342;45.574;9.252;2023-02-15T17:37:27;15.80;99.90
47626;DHT22;33342;45.574;9.252;2023-02-15T17:39:56;15.80;99.90
47626;DHT22;33342;45.574;9.252;2023-02-15T17:42:23;15.70;99.90
47626;DHT22;33342;45.574;9.252;2023-02-15T17:44:50;15.70;99.90
47626;DHT22;33342;45.574;9.252;2023-02-15T17:47:20;15.60;99.90
47626;DHT22;33342;45.574;9.252;2023-02-15T17:49:48;15.60;99.90
47626;DHT22;33342;45.574;9.252;2023-02-15T17:52:18;15.60;99.90
47626;DHT22;33342;45.574;9.252;2023-02-15T17:54:45;15.50;99.90
47626;DHT22;33342;45.574;9.252;2023-02-15T17:57:31;15.50;99.90
47626;DHT22;33342;45.574;9.252;2023-02-15T17:59:58;15.50;99.90
47626;DHT22;33342;45.574;9.252;2023-02-15T18:02:44;15.50;99.90
47626;DHT22;33342;45.574;9.252;2023-02-15T18:05:30;15.40;99.90
47626;DHT22;33342;45.574;9.252;2023-02-15T18:08:18;15.30;99.90
47626;DHT22;33342;45.574;9.252;2023-02-15T18:11:09;15.30;99.90
47626;DHT22;33342;45.574;9.252;2023-02-15T18:13:54;15.20;99.90
47626;DHT22;33342;45.574;9.252;2023-02-15T18:16:30;15.20;99.90
47626;DHT22;33342;45.574;9.252;2023-02-15T18:18:59;15.20;99.90
47626;DHT22;33342;45.574;9.252;2023-02-15T18:21:26;15.10;99.90
47626;DHT22;33342;45.574;9.252;2023-02-15T18:23:53;15.10;99.90
47626;DHT22;33342;45.574;9.252;2023-02-15T18:26:23;15.00;99.90
47626;DHT22;33342;45.574;9.252;2023-02-15T18:28:51;15.00;99.90
47626;DHT22;33342;45.574;9.252;2023-02-15T18:31:18;15.00;99.90
47626;DHT22;33342;45.574;9.252;2023-02-15T18:33:48;15.00;99.90
47626;DHT22;33342;45.574;9.252;2023-02-15T18:36:29;14.90;99.90
47626;DHT22;33342;45.574;9.252;2023-02-15T18:39:01;14.90;99.90
47626;DHT22;33342;45.574;9.252;2023-02-15T18:41:34;14.90;99.90
47626;DHT22;33342;45.574;9.252;2023-02-15T18:44:01;14.80;99.90
47626;DHT22;33342;45.574;9.252;2023-02-15T18:46:28;14.80;99.90
47626;DHT22;33342;45.574;9.252;2023-02-15T18:48:55;14.70;99.90
47626;DHT22;33342;45.574;9.252;2023-02-15T18:51:22;14.70;99.90
47626;DHT22;33342;45.574;9.252;2023-02-15T18:53:51;14.70;99.90
47626;DHT22;33342;45.574;9.252;2023-02-15T18:56:20;14.60;99.90
47626;DHT22;33342;45.574;9.252;2023-02-15T18:58:48;14.60;99.90
47626;DHT22;33342;45.574;9.252;2023-02-15T19:01:17;14.60;99.90
47626;DHT22;33342;45.574;9.252;2023-02-15T19:03:47;14.60;99.90
47626;DHT22;33342;45.574;9.252;2023-02-15T19:06:17;14.50;99.90
47626;DHT22;33342;45.574;9.252;2023-02-15T19:08:46;14.50;99.90
47626;DHT22;33342;45.574;9.252;2023-02-15T19:11:22;14.50;99.90
47626;DHT22;33342;45.574;9.252;2023-02-15T19:13:52;14.40;99.90
47626;DHT22;33342;45.574;9.252;2023-02-15T19:18:53;14.40;99.90
47626;DHT22;33342;45.574;9.252;2023-02-15T19:21:21;14.40;99.90
47626;DHT22;33342;45.574;9.252;2023-02-15T19:23:53;14.30;99.90
47626;DHT22;33342;45.574;9.252;2023-02-15T19:26:21;14.30;99.90
47626;DHT22;33342;45.574;9.252;2023-02-15T19:28:49;14.30;99.90